North Grafton, Massachusetts
Current Conditions -  °F | °C
As of 9:54 AM on Saturday 25 Oct 2014 (Local Time) from KORH Reporting Station
Clear Clear  
Wind Chill: 50°   Ceiling: Unl
Heat Index: 50°   Visibility: 10mi
Dew Point: 41°   Wind: 10mph
Humidity: 71%   Direction: 250°WSW
Pressure: 29.75"   Gusts: 21mph
Location:  42.23°N, 71.71°W
Report Text: KORH 251354Z 25009G18KT 10SM CLR 10/05 A2975 RMK AO2 SLP079 T01000050 $
Loading
Personal Weather Stations






























Interactive Weather Map
Tropical Storm Tracking
New forecast layout! Learn more

10-Day Weather Forecast

Advertisements
Track Severe Weather on mobile